createdAt,value
2018-02-24T00:01:04.320Z,22.70
2018-02-24T00:03:31.890Z,24.50
2018-02-24T00:05:59.435Z,24.17
2018-02-24T00:08:26.961Z,24.60
2018-02-24T00:10:54.455Z,22.23
2018-02-24T00:13:22.012Z,24.43
2018-02-24T00:15:49.503Z,22.90
2018-02-24T00:18:17.016Z,24.37
2018-02-24T00:20:44.584Z,24.23
2018-02-24T00:23:12.099Z,22.80
2018-02-24T00:25:39.627Z,24.43
2018-02-24T00:28:07.151Z,24.67
2018-02-24T00:30:34.663Z,26.00
2018-02-24T00:33:02.292Z,23.77
2018-02-24T00:35:29.783Z,25.10
2018-02-24T00:37:57.299Z,24.20
2018-02-24T00:40:24.840Z,23.27
2018-02-24T00:42:52.418Z,24.57
2018-02-24T00:45:19.910Z,24.20
2018-02-24T00:47:47.425Z,25.60
2018-02-24T00:50:14.912Z,25.33
2018-02-24T00:52:42.419Z,23.67
2018-02-24T00:55:10.133Z,24.33
2018-02-24T00:57:37.644Z,25.03
2018-02-24T01:00:05.311Z,24.20
2018-02-24T01:02:32.823Z,24.50
2018-02-24T01:05:00.323Z,24.07
2018-02-24T01:07:27.827Z,24.20
2018-02-24T01:09:55.371Z,23.90
2018-02-24T01:12:22.868Z,24.43
2018-02-24T01:14:50.386Z,23.10
2018-02-24T01:17:17.872Z,24.30
2018-02-24T01:19:45.404Z,25.60
2018-02-24T01:22:12.916Z,23.80
2018-02-24T01:24:40.551Z,25.47
2018-02-24T01:27:08.060Z,23.87
2018-02-24T01:29:35.605Z,23.87
2018-02-24T01:32:03.117Z,24.40
2018-02-24T01:34:31.592Z,24.93
2018-02-24T01:36:59.147Z,26.27
2018-02-24T01:39:26.704Z,23.73
2018-02-24T01:41:54.232Z,25.10
2018-02-24T01:44:21.744Z,24.43
2018-02-24T01:46:49.260Z,24.23
2018-02-24T01:49:16.947Z,25.03
2018-02-24T01:51:44.439Z,24.47
2018-02-24T01:54:12.063Z,25.30
2018-02-24T01:56:39.563Z,23.97
2018-02-24T01:59:07.089Z,26.80
2018-02-24T02:01:35.527Z,24.97
2018-02-24T02:04:03.038Z,25.50
2018-02-24T02:06:30.574Z,25.30
2018-02-24T02:08:58.143Z,25.17
2018-02-24T02:11:25.704Z,25.73
2018-02-24T02:13:53.224Z,24.60
2018-02-24T02:16:20.715Z,26.40
2018-02-24T02:18:48.223Z,25.57
2018-02-24T02:21:15.711Z,25.57
2018-02-24T02:23:43.240Z,26.27
2018-02-24T02:26:10.755Z,25.13
2018-02-24T02:28:38.267Z,24.77
2018-02-24T02:31:05.764Z,24.40
2018-02-24T02:33:33.284Z,25.50
2018-02-24T02:36:00.900Z,25.93
2018-02-24T02:38:28.416Z,25.53
2018-02-24T02:40:55.919Z,25.07
2018-02-24T02:43:23.461Z,25.30
2018-02-24T02:45:50.980Z,25.57
2018-02-24T02:48:18.471Z,26.53
2018-02-24T02:50:45.999Z,25.00
2018-02-24T02:53:13.493Z,25.97
2018-02-24T02:55:41.056Z,24.80
2018-02-24T02:58:08.550Z,25.87
2018-02-24T03:00:36.090Z,26.47
2018-02-24T03:03:03.592Z,24.77
2018-02-24T03:05:31.200Z,23.97
2018-02-24T03:07:58.715Z,25.63
2018-02-24T03:10:26.319Z,25.97
2018-02-24T03:12:53.811Z,25.43
2018-02-24T03:15:21.327Z,24.93
2018-02-24T03:17:48.811Z,26.00
2018-02-24T03:20:16.368Z,25.60
2018-02-24T03:22:43.903Z,25.77
2018-02-24T03:25:11.420Z,26.00
2018-02-24T03:27:38.911Z,25.60
2018-02-24T03:30:06.445Z,26.13
2018-02-24T03:32:34.026Z,24.70
2018-02-24T03:35:01.572Z,26.33
2018-02-24T03:37:29.059Z,25.53
2018-02-24T03:39:56.663Z,25.30
2018-02-24T03:42:24.401Z,25.80
2018-02-24T03:44:51.919Z,26.70
2018-02-24T03:47:19.458Z,24.90
2018-02-24T03:49:46.963Z,26.00
2018-02-24T03:52:14.479Z,25.13
2018-02-24T03:54:41.993Z,25.17
2018-02-24T03:57:09.487Z,26.07
2018-02-24T03:59:37.095Z,25.00
2018-02-24T04:02:04.667Z,27.30
2018-02-24T04:04:32.184Z,24.30
2018-02-24T04:06:59.672Z,25.40
2018-02-24T04:09:27.235Z,23.93
2018-02-24T04:11:54.723Z,24.97
2018-02-24T04:14:22.285Z,25.90
2018-02-24T04:16:50.719Z,24.53
2018-02-24T04:19:18.295Z,27.50
2018-02-24T04:21:45.812Z,26.87
2018-02-24T04:24:13.423Z,27.17
2018-02-24T04:26:40.956Z,27.67
2018-02-24T04:29:08.531Z,28.70
2018-02-24T04:31:36.055Z,27.27
2018-02-24T04:34:03.548Z,27.73
2018-02-24T04:36:31.106Z,29.50
2018-02-24T04:38:58.671Z,27.43
2018-02-24T04:41:26.237Z,29.07
2018-02-24T04:43:53.755Z,29.70
2018-02-24T04:46:21.265Z,27.10
2018-02-24T04:48:48.808Z,28.73
2018-02-24T04:51:16.327Z,28.60
2018-02-24T04:53:44.827Z,28.57
2018-02-24T04:56:12.407Z,29.57
2018-02-24T04:58:39.967Z,26.80
2018-02-24T05:01:07.526Z,28.77
2018-02-24T05:03:35.027Z,32.53
2018-02-24T05:06:02.649Z,27.93
2018-02-24T05:08:30.143Z,29.03
2018-02-24T05:10:57.664Z,27.97
2018-02-24T05:13:25.196Z,28.80
2018-02-24T05:15:52.703Z,29.40
2018-02-24T05:18:20.236Z,30.63
2018-02-24T05:20:47.747Z,28.33
2018-02-24T05:23:15.477Z,28.40
2018-02-24T05:25:43.020Z,27.03
2018-02-24T05:28:10.515Z,25.73
2018-02-24T05:30:38.043Z,27.67
2018-02-24T05:33:05.540Z,26.10
2018-02-24T05:35:34.085Z,28.07
2018-02-24T05:38:01.580Z,26.83
2018-02-24T05:40:29.100Z,28.13
2018-02-24T05:42:56.658Z,26.57
2018-02-24T05:45:24.221Z,26.23
2018-02-24T05:47:51.776Z,25.97
2018-02-24T05:50:19.303Z,27.30
2018-02-24T05:52:46.896Z,28.47
2018-02-24T05:55:14.391Z,25.90
2018-02-24T05:57:41.923Z,25.00
2018-02-24T06:00:09.590Z,26.40
2018-02-24T06:02:37.166Z,26.37
2018-02-24T06:05:04.631Z,26.87
2018-02-24T06:07:32.282Z,28.23
2018-02-24T06:09:59.784Z,25.87
2018-02-24T06:12:27.338Z,27.40
2018-02-24T06:14:54.834Z,25.67
2018-02-24T06:17:22.396Z,27.27
2018-02-24T06:19:49.967Z,27.90
2018-02-24T06:22:17.484Z,25.37
2018-02-24T06:24:44.984Z,27.90
2018-02-24T06:27:12.647Z,27.03
2018-02-24T06:29:40.144Z,27.30
2018-02-24T06:32:07.655Z,27.57
2018-02-24T06:34:35.167Z,29.43
2018-02-24T06:37:02.683Z,28.33
2018-02-24T06:39:30.240Z,28.93
2018-02-24T06:41:57.788Z,27.30
2018-02-24T06:44:25.305Z,28.60
2018-02-24T06:46:52.825Z,27.80
2018-02-24T06:49:20.334Z,26.97
2018-02-24T06:51:47.876Z,28.13
2018-02-24T06:54:15.386Z,28.30
2018-02-24T06:56:42.895Z,27.03
2018-02-24T06:59:10.392Z,28.23
2018-02-24T07:01:37.903Z,26.83
2018-02-24T07:04:05.416Z,27.17
2018-02-24T07:06:32.932Z,27.30
2018-02-24T07:09:00.422Z,28.00
2018-02-24T07:11:27.937Z,26.93
2018-02-24T07:13:55.432Z,28.70
2018-02-24T07:16:23.003Z,27.17
2018-02-24T07:18:50.510Z,28.67
2018-02-24T07:21:18.027Z,27.13
2018-02-24T07:23:45.527Z,28.07
2018-02-24T07:26:13.095Z,28.07
2018-02-24T07:28:40.607Z,27.27
2018-02-24T07:31:08.116Z,27.17
2018-02-24T07:33:35.632Z,27.43
2018-02-24T07:36:03.280Z,27.77
2018-02-24T07:38:30.806Z,26.63
2018-02-24T07:40:58.304Z,29.13
2018-02-24T07:43:25.819Z,25.07
2018-02-24T07:45:53.340Z,27.10
2018-02-24T07:48:20.880Z,27.17
2018-02-24T07:50:48.480Z,27.40
2018-02-24T07:53:16.000Z,26.47
2018-02-24T07:55:43.556Z,25.93
2018-02-24T07:58:11.099Z,27.70
2018-02-24T08:00:38.592Z,26.53
2018-02-24T08:03:06.137Z,25.87
2018-02-24T08:05:33.623Z,26.13
2018-02-24T08:08:01.147Z,24.87
2018-02-24T08:10:28.645Z,24.73
2018-02-24T08:12:56.160Z,26.30
2018-02-24T08:15:23.652Z,25.40
2018-02-24T08:17:51.167Z,26.10
2018-02-24T08:20:18.659Z,25.00
2018-02-24T08:22:46.191Z,26.00
2018-02-24T08:25:13.687Z,26.00
2018-02-24T08:27:41.317Z,25.30
2018-02-24T08:30:08.848Z,25.77
2018-02-24T08:32:36.463Z,26.87
2018-02-24T08:35:04.002Z,27.23
2018-02-24T08:37:31.515Z,28.70
2018-02-24T08:39:59.007Z,26.37
2018-02-24T08:42:26.573Z,25.17
2018-02-24T08:44:54.131Z,27.10
2018-02-24T08:47:21.698Z,26.37
2018-02-24T08:49:49.187Z,27.53
2018-02-24T08:52:16.704Z,28.00
2018-02-24T08:54:44.227Z,27.30
2018-02-24T08:57:11.735Z,26.77
2018-02-24T08:59:39.253Z,27.60
2018-02-24T09:02:06.840Z,26.87
2018-02-24T09:04:34.415Z,26.30
2018-02-24T09:07:01.927Z,25.70
2018-02-24T09:09:29.532Z,27.13
2018-02-24T09:11:57.073Z,24.80
2018-02-24T09:14:24.643Z,26.77
2018-02-24T09:16:52.138Z,26.13
2018-02-24T09:19:19.683Z,25.57
2018-02-24T09:21:47.175Z,27.63
2018-02-24T09:24:14.797Z,26.73
2018-02-24T09:26:42.288Z,26.07
2018-02-24T09:29:09.815Z,26.40
2018-02-24T09:31:37.311Z,26.17
2018-02-24T09:34:04.911Z,26.77
2018-02-24T09:36:32.473Z,27.70
2018-02-24T09:38:59.989Z,28.33
2018-02-24T09:41:27.479Z,27.80
2018-02-24T09:43:54.986Z,28.90
2018-02-24T09:46:22.476Z,26.53
2018-02-24T09:48:50.063Z,27.13
2018-02-24T09:51:17.556Z,29.33
2018-02-24T09:53:45.086Z,27.07
2018-02-24T09:56:12.668Z,25.40
2018-02-24T09:58:40.257Z,27.33
2018-02-24T10:01:07.799Z,28.57
2018-02-24T10:03:35.354Z,27.17
2018-02-24T10:06:02.855Z,26.60
2018-02-24T10:08:30.367Z,27.90
2018-02-24T10:10:57.925Z,27.87
2018-02-24T10:13:25.476Z,27.47
2018-02-24T10:15:53.044Z,26.87
2018-02-24T10:18:20.599Z,26.07
2018-02-24T10:20:48.160Z,28.13
2018-02-24T10:23:15.720Z,28.50
2018-02-24T10:25:43.258Z,29.23
2018-02-24T10:28:10.790Z,27.17
2018-02-24T10:30:38.312Z,27.73
2018-02-24T10:33:05.940Z,27.20
2018-02-24T10:35:33.471Z,28.90
2018-02-24T10:38:00.974Z,29.80
2018-02-24T10:40:28.511Z,33.23
2018-02-24T10:42:56.002Z,30.47
2018-02-24T10:45:23.518Z,30.40
2018-02-24T10:47:51.101Z,27.47
2018-02-24T10:50:18.655Z,30.00
2018-02-24T10:52:46.155Z,28.97
2018-02-24T10:55:13.684Z,27.90
2018-02-24T10:57:41.180Z,30.30
2018-02-24T11:00:08.705Z,29.10
2018-02-24T11:02:36.196Z,29.60
2018-02-24T11:05:03.711Z,27.77
2018-02-24T11:07:31.224Z,27.20
2018-02-24T11:09:58.734Z,29.30
2018-02-24T11:12:26.220Z,29.63
2018-02-24T11:14:53.842Z,28.57
2018-02-24T11:17:21.335Z,28.50
2018-02-24T11:19:48.852Z,29.67
2018-02-24T11:22:16.344Z,30.27
2018-02-24T11:24:43.887Z,30.30
2018-02-24T11:27:11.388Z,29.43
2018-02-24T11:29:38.997Z,28.37
2018-02-24T11:32:06.487Z,28.73
2018-02-24T11:34:34.118Z,28.23
2018-02-24T11:37:01.672Z,27.70
2018-02-24T11:39:34.720Z,29.27
2018-02-24T11:42:02.242Z,30.17
2018-02-24T11:44:29.788Z,29.83
2018-02-24T11:46:57.344Z,28.73
2018-02-24T11:49:24.861Z,29.07
2018-02-24T11:51:52.456Z,28.60
2018-02-24T11:54:20.056Z,29.83
2018-02-24T11:56:47.555Z,29.87
2018-02-24T11:59:15.108Z,28.23
2018-02-24T12:01:42.604Z,28.47
2018-02-24T12:04:10.119Z,30.07
2018-02-24T12:06:37.612Z,30.63
2018-02-24T12:09:05.124Z,29.57
2018-02-24T12:11:32.614Z,29.77
2018-02-24T12:14:00.117Z,29.63
2018-02-24T12:16:27.668Z,29.50
2018-02-24T12:18:55.219Z,29.70
2018-02-24T12:21:22.772Z,28.90
2018-02-24T12:23:50.271Z,30.27
2018-02-24T12:26:17.934Z,28.17
2018-02-24T12:28:45.421Z,28.30
2018-02-24T12:31:13.120Z,29.53
2018-02-24T12:33:40.620Z,29.23
2018-02-24T12:36:08.137Z,31.97
2018-02-24T12:38:35.627Z,29.83
2018-02-24T12:41:03.135Z,30.27
2018-02-24T12:43:30.625Z,29.17
2018-02-24T12:45:58.164Z,29.93
2018-02-24T12:48:25.662Z,30.27
2018-02-24T12:50:53.222Z,31.57
2018-02-24T12:53:20.707Z,33.00
2018-02-24T12:55:48.223Z,29.00
2018-02-24T12:58:15.759Z,28.27
2018-02-24T13:00:43.268Z,30.33
2018-02-24T13:03:10.780Z,29.90
2018-02-24T13:05:38.296Z,28.00
2018-02-24T13:08:05.788Z,29.43
2018-02-24T13:10:33.317Z,32.23
2018-02-24T13:13:00.929Z,29.13
2018-02-24T13:15:28.439Z,29.20
2018-02-24T13:17:55.933Z,30.57
2018-02-24T13:20:23.487Z,29.13
2018-02-24T13:22:50.993Z,27.87
2018-02-24T13:25:18.550Z,26.87
2018-02-24T13:27:46.021Z,27.23
2018-02-24T13:30:13.536Z,29.37
2018-02-24T13:32:41.039Z,28.93
2018-02-24T13:35:08.570Z,27.77
2018-02-24T13:37:36.088Z,28.53
2018-02-24T13:40:03.627Z,29.47
2018-02-24T13:42:31.219Z,28.97
2018-02-24T13:44:58.779Z,26.87
2018-02-24T13:47:26.292Z,28.37
2018-02-24T13:49:53.784Z,29.70
2018-02-24T13:52:21.292Z,27.37
2018-02-24T13:54:48.783Z,29.67
2018-02-24T13:57:16.377Z,28.00
2018-02-24T13:59:43.951Z,28.30
2018-02-24T14:02:11.484Z,26.90
2018-02-24T14:04:39.028Z,27.33
2018-02-24T14:07:06.543Z,27.27
2018-02-24T14:09:34.039Z,26.33
2018-02-24T14:12:01.716Z,26.03
2018-02-24T14:14:29.294Z,25.63
2018-02-24T14:16:56.840Z,25.13
2018-02-24T14:19:24.334Z,25.57
2018-02-24T14:21:51.981Z,24.73
2018-02-24T14:24:19.533Z,26.47
2018-02-24T14:26:47.051Z,25.47
2018-02-24T14:29:14.573Z,28.77
2018-02-24T14:31:42.128Z,26.20
2018-02-24T14:34:09.644Z,27.83
2018-02-24T14:36:37.235Z,27.10
2018-02-24T14:39:04.730Z,25.87
2018-02-24T14:41:32.245Z,25.63
2018-02-24T14:43:59.745Z,26.60
2018-02-24T14:46:27.283Z,31.43
2018-02-24T14:48:54.796Z,29.40
2018-02-24T14:51:22.310Z,26.00
2018-02-24T14:53:49.807Z,25.27
2018-02-24T14:56:17.342Z,25.67
2018-02-24T14:58:44.868Z,27.00
2018-02-24T15:01:12.387Z,25.00
2018-02-24T15:03:39.879Z,25.63
2018-02-24T15:06:07.392Z,25.43
2018-02-24T15:08:34.904Z,25.03
2018-02-24T15:11:02.424Z,25.13
2018-02-24T15:13:30.003Z,24.20
2018-02-24T15:15:57.540Z,26.13
2018-02-24T15:18:25.044Z,28.50
2018-02-24T15:20:52.572Z,24.43
2018-02-24T15:23:20.068Z,26.33
2018-02-24T15:25:47.571Z,25.23
2018-02-24T15:28:15.108Z,27.63
2018-02-24T15:30:42.609Z,25.83
2018-02-24T15:33:10.127Z,25.10
2018-02-24T15:35:37.655Z,25.90
2018-02-24T15:38:05.197Z,25.63
2018-02-24T15:40:32.760Z,25.17
2018-02-24T15:43:00.281Z,24.10
2018-02-24T15:45:27.784Z,24.13
2018-02-24T15:47:55.344Z,27.03
2018-02-24T15:50:22.831Z,26.37
2018-02-24T15:52:51.198Z,25.63
2018-02-24T15:55:18.723Z,23.60
2018-02-24T15:57:46.287Z,23.17
2018-02-24T16:00:13.852Z,20.93
2018-02-24T16:02:41.371Z,21.40
2018-02-24T16:05:08.979Z,21.37
2018-02-24T16:07:36.676Z,20.57
2018-02-24T16:10:04.191Z,20.03
2018-02-24T16:12:31.704Z,19.73
2018-02-24T16:14:59.216Z,20.93
2018-02-24T16:17:26.737Z,20.50
2018-02-24T16:19:54.230Z,18.47
2018-02-24T16:22:21.739Z,20.77
2018-02-24T16:24:49.233Z,21.03
2018-02-24T16:27:16.763Z,21.27
2018-02-24T16:29:44.255Z,17.83
2018-02-24T16:32:11.767Z,19.63
2018-02-24T16:34:39.268Z,17.77
2018-02-24T16:37:06.797Z,19.33
2018-02-24T16:39:34.313Z,16.30
2018-02-24T16:42:01.852Z,17.37
2018-02-24T16:44:29.419Z,15.70
2018-02-24T16:46:56.931Z,16.03
2018-02-24T16:49:24.451Z,15.20
2018-02-24T16:51:51.974Z,13.97
2018-02-24T16:54:19.551Z,14.20
2018-02-24T16:56:47.134Z,14.07
2018-02-24T16:59:14.663Z,12.13
2018-02-24T17:01:42.154Z,12.63
2018-02-24T17:04:09.686Z,12.33
2018-02-24T17:06:37.180Z,12.50
2018-02-24T17:09:04.702Z,13.03
2018-02-24T17:11:32.227Z,12.60
2018-02-24T17:13:59.741Z,13.00
2018-02-24T17:16:27.300Z,12.10
2018-02-24T17:18:54.852Z,12.70
2018-02-24T17:21:22.344Z,11.20
2018-02-24T17:23:49.868Z,12.83
2018-02-24T17:26:17.542Z,11.67
2018-02-24T17:28:45.057Z,12.30
2018-02-24T17:31:12.547Z,12.30
2018-02-24T17:33:40.063Z,11.77
2018-02-24T17:36:11.423Z,11.07
2018-02-24T17:38:45.635Z,11.53
2018-02-24T17:41:15.295Z,11.70
2018-02-24T17:43:43.744Z,11.13
2018-02-24T17:46:11.331Z,10.90
2018-02-24T17:48:38.870Z,10.97
2018-02-24T17:51:06.429Z,12.30
2018-02-24T17:53:33.940Z,11.90
2018-02-24T17:56:01.434Z,12.47
2018-02-24T17:58:28.950Z,11.43
2018-02-24T18:00:56.455Z,11.90
2018-02-24T18:03:23.996Z,12.70
2018-02-24T18:05:51.561Z,13.60
2018-02-24T18:08:19.148Z,12.47
2018-02-24T18:10:46.709Z,12.13
2018-02-24T18:13:14.288Z,11.27
2018-02-24T18:15:41.783Z,11.83
2018-02-24T18:18:09.352Z,11.57
2018-02-24T18:20:36.824Z,11.60
2018-02-24T18:23:04.366Z,14.30
2018-02-24T18:25:31.852Z,15.67
2018-02-24T18:27:59.375Z,15.97
2018-02-24T18:30:26.898Z,16.17
2018-02-24T18:32:54.440Z,14.73
2018-02-24T18:35:21.935Z,14.33
2018-02-24T18:37:49.463Z,14.80
2018-02-24T18:40:16.997Z,15.50
2018-02-24T18:42:44.516Z,13.73
2018-02-24T18:45:12.135Z,11.53
2018-02-24T18:47:39.644Z,11.50
2018-02-24T18:50:07.257Z,13.03
2018-02-24T18:52:34.822Z,12.73
2018-02-24T18:55:02.343Z,11.93
2018-02-24T18:57:29.936Z,10.40
2018-02-24T18:59:57.465Z,14.40
2018-02-24T19:02:24.964Z,14.17
2018-02-24T19:04:52.479Z,12.03
2018-02-24T19:07:20.080Z,12.20
2018-02-24T19:09:47.594Z,14.17
2018-02-24T19:12:15.087Z,13.33
2018-02-24T19:14:42.758Z,12.67
2018-02-24T19:17:10.259Z,13.97
2018-02-24T19:19:37.783Z,15.33
2018-02-24T19:22:05.454Z,14.47
2018-02-24T19:24:32.988Z,14.83
2018-02-24T19:27:00.485Z,15.17
2018-02-24T19:29:27.991Z,13.70
2018-02-24T19:31:55.488Z,16.73
2018-02-24T19:34:23.016Z,13.13
2018-02-24T19:36:50.508Z,21.27
2018-02-24T19:39:18.068Z,25.63
2018-02-24T19:41:45.575Z,10.53
2018-02-24T19:44:13.236Z,16.37
2018-02-24T19:46:40.728Z,13.90
2018-02-24T19:49:08.257Z,19.23
2018-02-24T19:51:35.768Z,14.97
2018-02-24T19:54:03.264Z,12.47
2018-02-24T19:56:30.777Z,12.53
2018-02-24T19:58:58.333Z,13.77
2018-02-24T20:01:25.854Z,13.40
2018-02-24T20:03:53.351Z,12.43
2018-02-24T20:06:20.868Z,11.77
2018-02-24T20:08:48.421Z,14.57
2018-02-24T20:11:16.037Z,12.93
2018-02-24T20:13:43.572Z,11.83
2018-02-24T20:16:11.084Z,11.30
2018-02-24T20:18:38.686Z,13.33
2018-02-24T20:21:06.229Z,12.73
2018-02-24T20:23:33.803Z,12.87
2018-02-24T20:26:01.323Z,11.47
2018-02-24T20:28:28.821Z,12.47
2018-02-24T20:30:56.353Z,11.57
2018-02-24T20:33:23.943Z,12.33
2018-02-24T20:35:51.452Z,11.87
2018-02-24T20:38:18.964Z,12.57
2018-02-24T20:40:46.516Z,12.20
2018-02-24T20:43:14.004Z,13.97
2018-02-24T20:45:41.631Z,12.97
2018-02-24T20:48:09.128Z,11.67
2018-02-24T20:50:36.693Z,11.27
2018-02-24T20:53:04.188Z,15.77
2018-02-24T20:55:31.741Z,11.87
2018-02-24T20:57:59.248Z,13.23
2018-02-24T21:00:26.764Z,11.50
2018-02-24T21:02:55.303Z,13.33
2018-02-24T21:05:22.823Z,11.37
2018-02-24T21:07:50.392Z,10.87
2018-02-24T21:10:17.972Z,12.27
2018-02-24T21:12:45.487Z,11.53
2018-02-24T21:15:13.075Z,10.87
2018-02-24T21:17:40.582Z,10.43
2018-02-24T21:20:08.069Z,11.70
2018-02-24T21:22:35.599Z,11.33
2018-02-24T21:25:03.095Z,11.77
2018-02-24T21:27:30.629Z,12.07
2018-02-24T21:29:58.147Z,11.20
2018-02-24T21:32:26.059Z,11.80
2018-02-24T21:34:53.594Z,12.13
2018-02-24T21:37:21.215Z,11.20
2018-02-24T21:39:48.711Z,12.07
2018-02-24T21:42:16.227Z,11.20
2018-02-24T21:44:43.720Z,11.53
2018-02-24T21:47:11.244Z,14.03
2018-02-24T21:49:38.735Z,11.57
2018-02-24T21:52:06.267Z,10.90
2018-02-24T21:54:33.762Z,11.63
2018-02-24T21:57:01.278Z,11.40
2018-02-24T21:59:28.770Z,12.13
2018-02-24T22:01:56.299Z,12.77
2018-02-24T22:04:23.800Z,11.87
2018-02-24T22:06:51.320Z,12.73
2018-02-24T22:09:18.824Z,12.27
2018-02-24T22:11:46.356Z,11.90
2018-02-24T22:14:13.855Z,12.13
2018-02-24T22:16:41.373Z,11.10
2018-02-24T22:19:08.864Z,11.33
2018-02-24T22:21:36.383Z,12.33
2018-02-24T22:24:03.875Z,12.47
2018-02-24T22:26:31.393Z,11.50
2018-02-24T22:28:58.879Z,12.70
2018-02-24T22:31:26.404Z,11.80
2018-02-24T22:33:53.905Z,12.40
2018-02-24T22:36:21.416Z,12.30
2018-02-24T22:38:48.991Z,12.07
2018-02-24T22:41:16.534Z,13.20
2018-02-24T22:43:44.024Z,12.10
2018-02-24T22:46:11.551Z,11.43
2018-02-24T22:48:44.655Z,11.87
2018-02-24T22:51:12.212Z,13.20
2018-02-24T22:53:39.723Z,11.57
2018-02-24T22:56:07.216Z,12.73
2018-02-24T22:58:34.755Z,12.80
2018-02-24T23:01:02.367Z,13.57
2018-02-24T23:03:29.881Z,14.80
2018-02-24T23:05:57.375Z,13.23
2018-02-24T23:08:25.027Z,12.53
2018-02-24T23:10:52.528Z,13.77
2018-02-24T23:13:20.057Z,12.57
2018-02-24T23:15:47.627Z,12.90
2018-02-24T23:18:15.226Z,13.10
2018-02-24T23:20:42.752Z,12.30
2018-02-24T23:23:10.300Z,11.93
2018-02-24T23:25:37.808Z,12.77
2018-02-24T23:28:05.328Z,12.90
2018-02-24T23:30:32.839Z,13.00
2018-02-24T23:33:00.404Z,13.00
2018-02-24T23:35:27.907Z,13.00
2018-02-24T23:37:55.452Z,13.10
2018-02-24T23:40:22.991Z,13.03
2018-02-24T23:42:50.512Z,13.73
2018-02-24T23:45:18.008Z,13.23
2018-02-24T23:47:45.524Z,13.13
2018-02-24T23:50:13.016Z,12.40
2018-02-24T23:52:40.599Z,13.10
2018-02-24T23:55:08.100Z,12.93
2018-02-24T23:57:35.628Z,13.33
